Time;durP1;ratioP1;P1;durP2;ratioP2;P2;SDS_P1;SDS_P2;PMS_P1;PMS_P2;Temp;Humidity;BMP_temperature;BMP_pressure;BME280_temperature;BME280_humidity;BME280_pressure;Samples;Min_cycle;Max_cycle;Signal;HPM_P1;HPM_P2
2021/12/29 00:01:56;;;;;;;10.83;2.40;;;9.30;99.90;;;;;;5050294;28;20654;-58
2021/12/29 00:04:24;;;;;;;16.73;2.93;;;9.30;99.90;;;;;;5051632;28;20257;-58
2021/12/29 00:06:50;;;;;;;18.37;3.53;;;9.30;99.90;;;;;;5052155;28;20196;-57
2021/12/29 00:09:15;;;;;;;14.13;2.90;;;9.30;99.90;;;;;;5051708;28;20161;-57
2021/12/29 00:11:42;;;;;;;16.63;3.43;;;9.30;99.90;;;;;;5050827;28;20173;-57
2021/12/29 00:14:09;;;;;;;10.03;3.07;;;9.30;99.90;;;;;;5051598;28;20216;-58
2021/12/29 00:16:35;;;;;;;17.87;3.60;;;9.30;99.90;;;;;;5051819;28;20205;-58
2021/12/29 00:19:06;;;;;;;11.30;2.57;;;9.30;99.90;;;;;;5051973;28;20179;-57
2021/12/29 00:21:34;;;;;;;16.07;3.03;;;9.30;99.90;;;;;;5050611;28;20260;-57
2021/12/29 00:24:01;;;;;;;10.97;2.50;;;9.30;99.90;;;;;;5051877;28;20636;-57
2021/12/29 00:26:28;;;;;;;16.73;2.87;;;9.20;99.90;;;;;;5051820;28;20177;-58
2021/12/29 00:28:54;;;;;;;13.37;2.70;;;9.20;99.90;;;;;;5051551;28;20231;-57
2021/12/29 00:31:20;;;;;;;11.50;3.10;;;9.20;99.90;;;;;;5051387;28;20185;-59
2021/12/29 00:33:46;;;;;;;12.00;2.10;;;9.20;99.90;;;;;;5051711;28;20197;-58
2021/12/29 00:36:12;;;;;;;17.37;2.63;;;9.20;99.90;;;;;;5051386;28;20177;-57
2021/12/29 00:38:38;;;;;;;11.57;3.37;;;9.20;99.90;;;;;;5051722;28;20173;-58
2021/12/29 00:41:04;;;;;;;10.37;2.50;;;9.10;99.90;;;;;;5051407;28;20182;-59
2021/12/29 00:43:29;;;;;;;10.93;2.67;;;9.20;99.90;;;;;;5051058;28;20266;-59
2021/12/29 00:45:55;;;;;;;11.07;2.63;;;9.20;99.90;;;;;;5051325;28;20639;-59
2021/12/29 00:48:24;;;;;;;15.27;3.03;;;9.20;99.90;;;;;;5049343;28;20209;-58
2021/12/29 00:50:50;;;;;;;14.27;3.50;;;9.20;99.90;;;;;;5051106;28;20210;-58
2021/12/29 00:53:16;;;;;;;17.87;2.93;;;9.20;99.90;;;;;;5050851;28;20251;-58
2021/12/29 00:55:42;;;;;;;18.73;3.40;;;9.20;99.90;;;;;;5051279;28;20214;-57
2021/12/29 00:58:08;;;;;;;8.87;2.27;;;9.20;99.90;;;;;;5051066;28;20200;-57
2021/12/29 01:00:40;;;;;;;16.50;2.83;;;9.30;99.90;;;;;;5050819;28;20664;-57
2021/12/29 01:03:08;;;;;;;16.07;2.70;;;9.40;99.90;;;;;;5050685;28;20241;-57
2021/12/29 01:05:34;;;;;;;13.30;3.27;;;9.40;99.90;;;;;;5051210;28;20168;-58
2021/12/29 01:08:00;;;;;;;21.47;2.90;;;9.40;99.90;;;;;;5050737;28;20314;-57
2021/12/29 01:10:26;;;;;;;13.53;2.87;;;9.50;99.90;;;;;;5050849;28;20264;-57
2021/12/29 01:12:57;;;;;;;11.57;2.73;;;9.40;99.90;;;;;;5050959;28;20231;-58
2021/12/29 01:15:28;;;;;;;16.43;2.77;;;9.40;99.90;;;;;;5050696;28;20177;-58
2021/12/29 01:17:56;;;;;;;15.80;3.03;;;9.50;99.90;;;;;;5050747;28;20243;-58
2021/12/29 01:20:23;;;;;;;16.53;3.03;;;9.50;99.90;;;;;;5050884;28;20173;-58
2021/12/29 01:22:50;;;;;;;13.50;2.67;;;9.50;99.90;;;;;;5050285;28;20208;-58
2021/12/29 01:25:16;;;;;;;17.83;3.20;;;9.50;99.90;;;;;;5050799;28;20177;-58
2021/12/29 01:27:42;;;;;;;10.87;3.10;;;9.50;99.90;;;;;;5050485;28;20173;-58
2021/12/29 01:30:10;;;;;;;15.63;3.50;;;9.50;99.90;;;;;;5050227;28;20205;-58
2021/12/29 01:32:40;;;;;;;16.83;3.50;;;9.50;99.90;;;;;;5050604;28;20184;-58
2021/12/29 01:35:07;;;;;;;17.43;3.03;;;9.50;99.90;;;;;;5050275;28;20176;-58
2021/12/29 01:37:33;;;;;;;18.73;3.27;;;9.50;99.90;;;;;;5050324;28;20181;-58
2021/12/29 01:39:59;;;;;;;14.40;3.13;;;9.50;99.90;;;;;;5050432;28;20188;-58
2021/12/29 01:42:25;;;;;;;23.77;2.90;;;9.60;99.90;;;;;;5050239;28;20181;-58
2021/12/29 01:44:50;;;;;;;15.03;3.40;;;9.60;99.90;;;;;;5050353;28;20636;-62
2021/12/29 01:47:34;;;;;;;14.23;3.17;;;9.70;99.90;;;;;;5050461;28;20557;-57
2021/12/29 01:50:01;;;;;;;17.10;3.70;;;9.60;99.90;;;;;;5050515;28;20203;-57
2021/12/29 01:52:32;;;;;;;17.13;3.40;;;9.60;99.90;;;;;;5050491;28;20185;-57
2021/12/29 01:54:57;;;;;;;20.13;3.70;;;9.60;99.90;;;;;;5050405;28;20234;-57
2021/12/29 01:57:23;;;;;;;18.80;3.23;;;9.60;99.90;;;;;;5050380;28;20554;-57
2021/12/29 01:59:49;;;;;;;19.43;3.77;;;9.60;99.90;;;;;;5050560;28;20183;-57
2021/12/29 02:02:16;;;;;;;25.17;3.50;;;9.60;99.90;;;;;;5049966;28;20709;-57
2021/12/29 02:04:44;;;;;;;21.27;4.37;;;9.60;99.90;;;;;;5050274;28;20173;-57
2021/12/29 02:07:11;;;;;;;27.40;3.73;;;9.60;99.90;;;;;;5050142;28;20173;-57
2021/12/29 02:09:37;;;;;;;18.53;3.23;;;9.70;99.90;;;;;;5051033;28;20849;-57
2021/12/29 02:12:04;;;;;;;18.87;3.27;;;9.70;99.90;;;;;;5054095;28;20272;-57
2021/12/29 02:14:30;;;;;;;22.33;3.87;;;9.70;99.90;;;;;;5054037;28;20270;-57
2021/12/29 02:16:57;;;;;;;21.43;3.47;;;9.70;99.90;;;;;;5054487;28;20168;-57
2021/12/29 02:19:25;;;;;;;24.60;3.87;;;9.70;99.90;;;;;;5053971;28;20182;-57
2021/12/29 02:21:55;;;;;;;23.03;3.20;;;9.70;99.90;;;;;;5053969;28;20188;-57
2021/12/29 02:24:33;;;;;;;26.83;3.33;;;9.70;99.90;;;;;;5053927;28;20251;-57
2021/12/29 02:26:59;;;;;;;23.03;3.90;;;9.70;99.90;;;;;;5054474;28;20185;-57
2021/12/29 02:29:25;;;;;;;26.03;3.30;;;9.80;99.90;;;;;;5053509;28;20221;-57
2021/12/29 02:31:51;;;;;;;24.07;3.63;;;9.80;99.90;;;;;;5054097;28;20189;-57
2021/12/29 02:34:17;;;;;;;24.20;3.60;;;9.80;99.90;;;;;;5053751;28;20269;-57
2021/12/29 02:36:45;;;;;;;22.23;3.00;;;9.80;99.90;;;;;;5053522;28;20640;-57
2021/12/29 02:39:18;;;;;;;22.43;3.37;;;9.80;99.90;;;;;;5053541;28;20172;-57
2021/12/29 02:41:50;;;;;;;17.60;2.87;;;9.80;99.90;;;;;;5053805;28;20570;-57
2021/12/29 02:44:20;;;;;;;19.20;3.30;;;9.80;99.90;;;;;;5053678;28;20628;-57
2021/12/29 02:46:47;;;;;;;20.10;3.03;;;9.80;99.90;;;;;;5053490;28;20185;-57
2021/12/29 02:49:12;;;;;;;22.43;2.83;;;9.80;99.90;;;;;;5053428;28;20173;-57
2021/12/29 02:51:39;;;;;;;25.37;2.77;;;9.70;99.90;;;;;;5053221;28;20178;-57
2021/12/29 02:54:05;;;;;;;25.10;3.53;;;9.70;99.90;;;;;;5053374;28;20621;-57
2021/12/29 02:56:30;;;;;;;21.70;3.00;;;9.70;99.90;;;;;;5053572;28;20181;-57
2021/12/29 02:58:57;;;;;;;21.40;2.97;;;9.80;99.90;;;;;;5053278;28;20322;-58
2021/12/29 03:01:24;;;;;;;20.10;2.97;;;9.70;99.90;;;;;;5052945;28;20174;-57
2021/12/29 03:03:50;;;;;;;17.13;2.40;;;9.60;99.90;;;;;;5053194;28;20181;-57
2021/12/29 03:06:16;;;;;;;14.03;2.60;;;9.70;99.90;;;;;;5053439;28;20161;-58
2021/12/29 03:08:42;;;;;;;20.70;2.93;;;9.60;99.90;;;;;;5053163;28;20220;-58
2021/12/29 03:11:08;;;;;;;21.20;2.30;;;9.60;99.90;;;;;;5053310;28;20166;-57
2021/12/29 03:13:36;;;;;;;16.77;2.80;;;9.50;99.90;;;;;;5050733;28;20206;-58
2021/12/29 03:16:03;;;;;;;17.30;2.77;;;9.60;99.90;;;;;;5067031;28;20174;-58
2021/12/29 03:18:29;;;;;;;21.50;3.07;;;9.60;99.90;;;;;;5052681;28;20185;-58
2021/12/29 03:20:55;;;;;;;18.20;2.60;;;9.50;99.90;;;;;;5051702;28;20280;-57
2021/12/29 03:23:21;;;;;;;19.43;2.63;;;9.50;99.90;;;;;;5052702;28;20200;-58
2021/12/29 03:25:48;;;;;;;22.53;3.07;;;9.50;99.90;;;;;;5052479;28;20646;-57
2021/12/29 03:28:16;;;;;;;16.67;2.30;;;9.50;99.90;;;;;;5052996;28;20181;-57
2021/12/29 03:30:43;;;;;;;17.43;2.77;;;9.50;99.90;;;;;;5052113;28;20228;-58
2021/12/29 03:33:09;;;;;;;13.73;2.37;;;9.40;99.90;;;;;;5052486;28;20248;-61
2021/12/29 03:35:40;;;;;;;22.97;2.50;;;9.40;99.90;;;;;;5052879;28;20220;-57
2021/12/29 03:38:10;;;;;;;15.97;2.43;;;9.40;99.90;;;;;;5052591;28;20209;-57
2021/12/29 03:40:35;;;;;;;15.57;2.10;;;9.40;99.90;;;;;;5052546;28;20181;-57
2021/12/29 03:43:03;;;;;;;18.17;2.37;;;9.40;99.90;;;;;;5052729;28;20197;-57
2021/12/29 03:45:29;;;;;;;17.03;2.30;;;9.40;99.90;;;;;;5052350;28;20188;-57
2021/12/29 03:47:55;;;;;;;21.17;3.40;;;9.30;99.90;;;;;;5052242;28;20180;-57
2021/12/29 03:50:21;;;;;;;21.13;2.43;;;9.30;99.90;;;;;;5052495;28;20173;-57
2021/12/29 03:52:47;;;;;;;20.20;2.70;;;9.30;99.90;;;;;;5051831;28;20264;-57
2021/12/29 03:55:13;;;;;;;14.53;2.57;;;9.30;99.90;;;;;;5052339;28;20739;-57
2021/12/29 03:57:40;;;;;;;17.97;2.47;;;9.30;99.90;;;;;;5052467;28;20697;-57
2021/12/29 04:00:10;;;;;;;17.20;2.70;;;9.20;99.90;;;;;;5051843;28;20196;-57
2021/12/29 04:02:36;;;;;;;19.10;2.13;;;9.20;99.90;;;;;;5052252;28;20195;-57
2021/12/29 04:05:02;;;;;;;18.17;2.23;;;9.20;99.90;;;;;;5050064;28;20193;-57
2021/12/29 04:07:28;;;;;;;18.67;2.97;;;9.20;99.90;;;;;;5052238;28;20575;-58
2021/12/29 04:09:54;;;;;;;18.63;2.70;;;9.20;99.90;;;;;;5051954;28;20208;-58
2021/12/29 04:12:20;;;;;;;15.97;2.33;;;9.20;99.90;;;;;;5052213;28;20169;-58
2021/12/29 04:14:45;;;;;;;24.00;3.30;;;9.20;99.90;;;;;;5052043;28;20223;-57
2021/12/29 04:17:12;;;;;;;24.57;2.60;;;9.10;99.90;;;;;;5052248;28;20165;-58
2021/12/29 04:22:23;;;;;;;10.67;1.87;;;9.10;99.90;;;;;;5051907;28;20268;-58
2021/12/29 04:24:49;;;;;;;13.37;1.90;;;9.10;99.90;;;;;;5051818;28;20260;-58
2021/12/29 04:27:16;;;;;;;10.70;1.67;;;9.10;99.90;;;;;;5052149;28;20169;-58
2021/12/29 04:29:42;;;;;;;12.57;1.70;;;9.10;99.90;;;;;;5051259;28;20927;-58
2021/12/29 04:32:08;;;;;;;10.57;1.33;;;9.10;99.90;;;;;;5051245;28;20204;-58
2021/12/29 04:34:33;;;;;;;10.60;2.23;;;9.10;99.90;;;;;;5051716;28;20213;-58
2021/12/29 04:36:59;;;;;;;15.70;2.90;;;9.10;99.90;;;;;;5051338;28;20591;-58
2021/12/29 04:39:25;;;;;;;15.90;1.87;;;9.10;99.90;;;;;;5051537;28;20951;-58
2021/12/29 04:41:51;;;;;;;11.27;1.33;;;9.10;99.90;;;;;;5051560;28;20643;-58
2021/12/29 04:44:17;;;;;;;9.67;1.60;;;9.10;99.90;;;;;;5050918;28;20177;-58
2021/12/29 04:46:46;;;;;;;7.77;1.50;;;9.10;99.90;;;;;;5051134;28;20185;-58
2021/12/29 04:49:14;;;;;;;13.77;2.13;;;9.10;99.90;;;;;;5051462;28;20223;-58
2021/12/29 04:51:51;;;;;;;12.50;1.80;;;9.10;99.90;;;;;;5051088;28;20188;-58
2021/12/29 04:54:17;;;;;;;10.93;1.87;;;9.10;99.90;;;;;;5050858;28;20597;-58
2021/12/29 04:56:44;;;;;;;8.50;1.67;;;9.00;99.90;;;;;;5051183;28;20181;-58
2021/12/29 04:59:10;;;;;;;12.20;1.67;;;9.00;99.90;;;;;;5051249;28;20178;-58
2021/12/29 05:01:36;;;;;;;15.40;1.57;;;9.00;99.90;;;;;;5050647;28;20272;-58
2021/12/29 05:04:01;;;;;;;11.03;1.90;;;9.00;99.90;;;;;;5031358;28;20300;-58
2021/12/29 05:09:11;;;;;;;9.83;1.63;;;9.10;99.90;;;;;;5051151;28;20188;-58
2021/12/29 05:11:37;;;;;;;13.20;2.00;;;9.10;99.90;;;;;;5050854;28;20181;-58
2021/12/29 05:14:03;;;;;;;7.53;1.27;;;9.10;99.90;;;;;;5050934;28;20283;-58
2021/12/29 05:16:29;;;;;;;7.17;1.10;;;9.10;99.90;;;;;;5050522;28;20188;-58
2021/12/29 05:18:56;;;;;;;6.80;1.60;;;9.10;99.90;;;;;;5051133;28;20177;-58
2021/12/29 05:21:23;;;;;;;8.43;1.37;;;9.10;99.90;;;;;;5050482;28;20228;-58
2021/12/29 05:23:49;;;;;;;5.97;1.10;;;9.10;99.90;;;;;;5051185;28;20181;-57
2021/12/29 05:26:14;;;;;;;7.13;1.40;;;9.10;99.90;;;;;;5050846;28;20181;-57
2021/12/29 05:28:40;;;;;;;6.13;1.10;;;9.20;99.90;;;;;;5050460;28;20648;-57
2021/12/29 05:31:06;;;;;;;10.50;1.73;;;9.10;99.90;;;;;;5048161;28;20247;-57
2021/12/29 05:33:32;;;;;;;3.77;0.97;;;9.20;99.90;;;;;;5050673;28;20201;-57
2021/12/29 05:35:58;;;;;;;4.27;1.20;;;9.20;99.90;;;;;;5050492;28;20533;-57
2021/12/29 05:38:24;;;;;;;3.37;1.10;;;9.20;99.90;;;;;;5050625;28;20185;-58
2021/12/29 05:40:51;;;;;;;3.70;0.93;;;9.20;99.90;;;;;;5050138;28;20217;-58
2021/12/29 05:43:17;;;;;;;4.57;1.00;;;9.30;99.90;;;;;;5050821;28;20636;-57
2021/12/29 05:45:43;;;;;;;3.40;1.10;;;9.30;99.90;;;;;;5049407;28;20188;-58
2021/12/29 05:48:08;;;;;;;2.63;0.90;;;9.20;99.90;;;;;;5050271;28;20693;-58
2021/12/29 05:50:34;;;;;;;3.37;0.80;;;9.30;99.90;;;;;;5050398;28;20188;-58
2021/12/29 05:53:02;;;;;;;2.57;0.80;;;9.30;99.90;;;;;;5050209;28;20670;-58
2021/12/29 05:55:28;;;;;;;2.80;0.83;;;9.30;99.90;;;;;;5050630;28;20176;-58
2021/12/29 05:57:55;;;;;;;3.87;0.80;;;9.30;99.90;;;;;;5050045;28;20184;-58
2021/12/29 06:00:22;;;;;;;1.97;0.50;;;9.40;99.90;;;;;;5050393;28;20218;-58
2021/12/29 06:02:49;;;;;;;3.43;0.80;;;9.40;99.90;;;;;;5050056;28;20173;-58
2021/12/29 06:05:15;;;;;;;1.77;0.90;;;9.40;99.90;;;;;;5050320;28;20539;-58
2021/12/29 06:07:41;;;;;;;4.93;0.90;;;9.40;99.90;;;;;;5050125;28;20181;-63
2021/12/29 06:10:09;;;;;;;4.47;0.70;;;9.50;99.90;;;;;;5050499;28;20539;-58
2021/12/29 06:12:37;;;;;;;3.40;0.80;;;9.50;99.90;;;;;;5050325;28;20184;-58
2021/12/29 06:15:04;;;;;;;5.67;1.13;;;9.50;99.90;;;;;;5050220;28;20185;-58
2021/12/29 06:17:30;;;;;;;4.70;0.80;;;9.50;99.90;;;;;;5050151;28;20260;-58
2021/12/29 06:19:56;;;;;;;3.80;1.03;;;9.60;99.90;;;;;;5050101;28;20212;-58
2021/12/29 06:22:23;;;;;;;7.30;2.57;;;9.70;99.90;;;;;;5049908;28;20641;-58
2021/12/29 06:24:52;;;;;;;11.77;1.67;;;9.70;99.90;;;;;;5050320;28;20177;-58
2021/12/29 06:27:19;;;;;;;59.30;2.40;;;9.70;99.90;;;;;;5050022;28;20177;-58
2021/12/29 06:29:46;;;;;;;2.23;0.90;;;9.70;99.90;;;;;;5049430;28;20251;-57
2021/12/29 06:32:11;;;;;;;4.57;1.23;;;9.80;99.90;;;;;;5049734;28;20200;-58
2021/12/29 06:34:37;;;;;;;2.13;1.03;;;9.80;99.90;;;;;;5049908;28;20663;-58
2021/12/29 06:37:08;;;;;;;3.03;1.20;;;9.80;99.90;;;;;;5049985;28;20212;-58
2021/12/29 06:39:36;;;;;;;2.13;1.10;;;9.90;99.90;;;;;;5050197;28;20243;-58
2021/12/29 06:42:03;;;;;;;4.17;1.60;;;9.90;99.90;;;;;;5049801;28;20181;-58
2021/12/29 06:44:28;;;;;;;2.40;1.40;;;9.90;99.90;;;;;;5049691;28;20273;-58
2021/12/29 06:46:54;;;;;;;2.93;1.30;;;9.90;99.90;;;;;;5049003;28;20315;-62
2021/12/29 06:49:21;;;;;;;2.30;1.27;;;9.90;99.90;;;;;;5049739;28;20289;-59
2021/12/29 06:51:48;;;;;;;3.83;1.50;;;9.90;99.90;;;;;;5049324;28;20239;-59
2021/12/29 06:54:14;;;;;;;2.80;1.33;;;10.00;99.90;;;;;;5049997;28;20216;-59
2021/12/29 06:56:40;;;;;;;4.23;1.93;;;10.00;99.90;;;;;;5051957;28;20547;-59
2021/12/29 06:59:06;;;;;;;2.60;1.80;;;10.00;99.90;;;;;;5053337;28;20806;-58
2021/12/29 07:01:32;;;;;;;2.87;1.87;;;10.00;99.90;;;;;;5052835;28;20640;-58
2021/12/29 07:03:58;;;;;;;3.57;1.93;;;10.10;99.90;;;;;;5053429;28;20207;-59
2021/12/29 07:06:24;;;;;;;3.43;2.10;;;10.20;99.90;;;;;;5053018;28;20165;-59
2021/12/29 07:08:50;;;;;;;3.07;2.10;;;10.20;99.90;;;;;;5053356;28;20243;-59
2021/12/29 07:11:16;;;;;;;5.10;2.77;;;10.20;99.90;;;;;;5052887;28;20169;-59
2021/12/29 07:13:44;;;;;;;4.83;2.80;;;10.30;99.90;;;;;;5053248;28;20567;-59
2021/12/29 07:16:10;;;;;;;5.33;2.57;;;10.20;99.90;;;;;;5053155;28;20247;-59
2021/12/29 07:18:36;;;;;;;4.03;2.70;;;10.30;99.90;;;;;;5051807;28;20181;-58
2021/12/29 07:21:02;;;;;;;35.60;4.43;;;10.40;99.90;;;;;;5052870;28;20170;-58
2021/12/29 07:23:28;;;;;;;5.90;3.10;;;10.30;99.90;;;;;;5052665;28;20182;-57
2021/12/29 07:25:54;;;;;;;4.60;2.50;;;10.40;99.90;;;;;;5052947;28;20177;-57
2021/12/29 07:28:20;;;;;;;7.00;3.30;;;10.40;99.90;;;;;;5053057;28;20282;-57
2021/12/29 07:30:46;;;;;;;5.17;3.20;;;10.40;99.90;;;;;;5052681;28;20780;-57
2021/12/29 07:33:11;;;;;;;6.63;3.43;;;10.40;99.90;;;;;;5052611;28;20204;-57
2021/12/29 07:35:38;;;;;;;8.03;3.50;;;10.50;99.90;;;;;;5052801;28;20185;-57
2021/12/29 07:38:03;;;;;;;6.73;3.80;;;10.40;99.90;;;;;;5052415;28;20268;-57
2021/12/29 07:40:30;;;;;;;7.63;4.23;;;10.50;99.90;;;;;;5052521;28;20260;-57
2021/12/29 07:42:56;;;;;;;7.40;4.63;;;10.40;99.90;;;;;;5052395;28;20208;-57
2021/12/29 07:45:24;;;;;;;47.57;6.63;;;10.50;99.90;;;;;;5052254;28;20652;-57
2021/12/29 07:47:51;;;;;;;5.33;2.80;;;10.50;99.90;;;;;;5052737;28;20200;-57
2021/12/29 07:50:19;;;;;;;7.73;3.70;;;10.60;99.90;;;;;;5052264;28;20531;-57
2021/12/29 07:52:48;;;;;;;330.00;14.60;;;10.70;99.90;;;;;;5052311;28;20211;-57
2021/12/29 07:55:18;;;;;;;3.23;1.93;;;10.70;99.90;;;;;;5052463;28;20189;-57
2021/12/29 07:57:44;;;;;;;7.00;4.40;;;10.90;99.90;;;;;;5052200;28;20173;-57
2021/12/29 08:00:12;;;;;;;6.00;2.60;;;11.00;99.90;;;;;;5052199;28;20178;-57
2021/12/29 08:02:38;;;;;;;2.87;1.33;;;11.00;99.90;;;;;;5051048;28;20242;-57
2021/12/29 08:05:05;;;;;;;4.90;2.03;;;11.20;99.90;;;;;;5052169;28;20177;-57
2021/12/29 08:07:31;;;;;;;13.37;2.37;;;11.30;99.90;;;;;;5051198;28;20591;-57
2021/12/29 08:09:57;;;;;;;12.63;1.73;;;11.40;99.90;;;;;;5049632;28;20227;-57
2021/12/29 08:12:23;;;;;;;2.83;0.80;;;11.50;99.90;;;;;;5051885;28;20185;-57
2021/12/29 08:14:51;;;;;;;1.57;0.77;;;11.60;99.90;;;;;;5052263;28;20209;-57
2021/12/29 08:17:17;;;;;;;3.53;1.47;;;11.70;99.90;;;;;;5051625;28;20193;-57
2021/12/29 08:19:45;;;;;;;4.27;1.00;;;11.70;99.90;;;;;;5052043;28;20185;-57
2021/12/29 08:22:11;;;;;;;2.53;0.60;;;11.80;99.90;;;;;;5051809;28;20207;-57
2021/12/29 08:24:37;;;;;;;1.70;0.53;;;11.90;99.90;;;;;;5051545;28;20695;-57
2021/12/29 08:27:03;;;;;;;0.87;0.40;;;11.90;99.90;;;;;;5051725;28;20184;-57
2021/12/29 08:29:29;;;;;;;0.30;0.30;;;11.90;99.90;;;;;;5051704;28;20278;-57
2021/12/29 08:31:57;;;;;;;0.57;0.33;;;12.00;99.90;;;;;;5051533;28;20483;-58
2021/12/29 08:34:26;;;;;;;0.80;0.40;;;12.10;99.90;;;;;;5051316;28;20687;-61
2021/12/29 08:36:52;;;;;;;1.23;0.40;;;12.10;99.90;;;;;;5051354;28;20176;-61
2021/12/29 08:39:19;;;;;;;2.37;0.70;;;12.10;99.90;;;;;;5051518;28;20724;-60
2021/12/29 08:41:48;;;;;;;0.20;0.20;;;12.20;99.90;;;;;;5051199;28;20183;-60
2021/12/29 08:44:14;;;;;;;1.80;0.20;;;12.30;99.90;;;;;;5051201;28;20173;-61
2021/12/29 08:46:40;;;;;;;0.57;0.40;;;12.30;99.90;;;;;;5051392;28;20219;-61
2021/12/29 08:49:06;;;;;;;1.57;0.50;;;12.40;99.90;;;;;;5051053;28;20188;-60
2021/12/29 08:51:32;;;;;;;1.63;0.40;;;12.40;99.90;;;;;;5050176;28;20177;-62
2021/12/29 08:53:59;;;;;;;0.80;0.30;;;12.40;99.90;;;;;;5051068;28;20322;-61
2021/12/29 08:56:25;;;;;;;3.07;0.33;;;12.40;99.90;;;;;;5050745;28;20193;-60
2021/12/29 08:58:53;;;;;;;0.40;0.30;;;12.50;99.90;;;;;;5051040;28;20239;-61
2021/12/29 09:01:20;;;;;;;0.20;0.20;;;12.60;99.90;;;;;;5050433;28;20206;-61
2021/12/29 09:03:48;;;;;;;0.73;0.20;;;12.70;99.90;;;;;;5050998;28;20186;-60
2021/12/29 09:06:15;;;;;;;0.20;0.20;;;12.70;99.90;;;;;;5048698;28;20192;-60
2021/12/29 09:08:41;;;;;;;0.63;0.30;;;12.70;99.90;;;;;;5050842;28;20173;-60
2021/12/29 09:11:07;;;;;;;1.40;0.40;;;12.70;99.90;;;;;;5050356;28;20204;-60
2021/12/29 09:13:33;;;;;;;1.27;0.40;;;12.80;99.90;;;;;;5050970;28;20287;-61
2021/12/29 09:15:59;;;;;;;0.30;0.20;;;12.90;99.90;;;;;;5049988;28;20208;-56
2021/12/29 09:18:27;;;;;;;0.60;0.50;;;12.90;99.90;;;;;;5049041;28;20264;-57
2021/12/29 09:20:55;;;;;;;0.43;0.30;;;12.50;99.90;;;;;;5049349;28;20216;-57
2021/12/29 09:23:21;;;;;;;1.23;0.50;;;13.00;99.90;;;;;;5050681;28;20268;-57
2021/12/29 09:25:48;;;;;;;1.43;0.60;;;13.10;99.90;;;;;;5050215;28;20307;-57
2021/12/29 09:28:17;;;;;;;0.87;0.50;;;12.90;99.90;;;;;;5050196;28;20169;-57
2021/12/29 09:30:45;;;;;;;1.77;0.50;;;13.20;99.90;;;;;;5047645;28;20649;-63
2021/12/29 09:33:12;;;;;;;2.93;0.57;;;13.20;99.90;;;;;;5050566;28;20339;-63
2021/12/29 09:35:38;;;;;;;3.80;0.57;;;13.30;99.90;;;;;;5050116;28;20223;-64
2021/12/29 09:38:07;;;;;;;5.80;0.67;;;13.30;99.90;;;;;;5050599;28;20180;-63
2021/12/29 09:40:34;;;;;;;0.40;0.40;;;13.40;99.90;;;;;;5050069;28;20189;-64
2021/12/29 09:43:00;;;;;;;3.30;0.50;;;13.50;99.90;;;;;;5050468;28;20186;-64
2021/12/29 09:45:26;;;;;;;2.50;0.70;;;13.50;99.90;;;;;;5050306;28;20200;-63
2021/12/29 09:47:55;;;;;;;4.63;0.60;;;13.60;99.90;;;;;;5049291;28;20165;-64
2021/12/29 09:50:21;;;;;;;4.57;0.50;;;13.70;99.90;;;;;;5050885;28;20181;-63
2021/12/29 09:52:47;;;;;;;3.30;0.57;;;13.70;99.90;;;;;;5049625;28;20157;-63
2021/12/29 09:55:17;;;;;;;3.07;0.70;;;13.80;99.90;;;;;;5050114;28;20707;-64
2021/12/29 09:57:45;;;;;;;10.80;0.80;;;13.90;99.90;;;;;;5050447;28;20263;-62
2021/12/29 10:00:24;;;;;;;7.13;0.93;;;14.00;99.90;;;;;;5050421;28;20176;-62
2021/12/29 10:02:50;;;;;;;7.90;1.17;;;14.10;99.90;;;;;;5048915;28;20169;-62
2021/12/29 10:05:16;;;;;;;8.53;1.00;;;14.10;99.90;;;;;;5050267;28;20184;-61
2021/12/29 10:07:42;;;;;;;5.80;1.02;;;14.20;99.90;;;;;;5050471;28;20169;-60
2021/12/29 10:10:21;;;;;;;5.70;1.30;;;14.20;99.90;;;;;;5044353;28;20231;-61
2021/12/29 10:12:47;;;;;;;5.13;1.17;;;14.20;99.90;;;;;;5045980;28;20226;-61
2021/12/29 10:15:14;;;;;;;9.32;1.10;;;14.30;99.90;;;;;;5050393;28;20667;-61
2021/12/29 10:17:40;;;;;;;6.65;1.00;;;14.30;99.90;;;;;;5050638;28;20227;-56
2021/12/29 10:20:12;;;;;;;12.27;1.20;;;14.30;99.90;;;;;;5038674;28;20648;-56
2021/12/29 10:22:39;;;;;;;5.50;1.30;;;14.40;99.90;;;;;;5041010;28;20174;-56
2021/12/29 10:25:12;;;;;;;6.43;0.80;;;14.40;99.90;;;;;;5050088;28;20272;-56
2021/12/29 10:27:39;;;;;;;8.17;1.00;;;14.40;99.90;;;;;;5050021;28;20315;-56
2021/12/29 10:30:27;;;;;;;6.23;0.87;;;14.50;99.90;;;;;;5050084;28;20213;-57
2021/12/29 10:32:57;;;;;;;9.47;1.10;;;14.50;99.90;;;;;;5054000;28;20172;-58
2021/12/29 10:35:28;;;;;;;4.83;1.00;;;14.50;99.90;;;;;;5053738;28;20203;-56
2021/12/29 10:38:09;;;;;;;8.43;1.07;;;14.50;99.90;;;;;;5053737;28;20250;-58
2021/12/29 10:40:35;;;;;;;9.05;1.17;;;14.50;99.90;;;;;;5035484;28;20176;-57
2021/12/29 10:43:02;;;;;;;7.20;1.60;;;14.50;99.90;;;;;;5053886;28;20643;-57
2021/12/29 10:45:39;;;;;;;4.75;1.05;;;14.50;99.90;;;;;;5053721;28;20212;-56
2021/12/29 10:48:22;;;;;;;3.63;1.00;;;14.50;99.90;;;;;;5053505;28;20180;-56
2021/12/29 10:51:00;;;;;;;5.87;1.27;;;14.50;99.90;;;;;;5053155;28;20706;-56
2021/12/29 10:53:26;;;;;;;6.28;0.93;;;14.50;99.90;;;;;;5053444;28;20201;-56
2021/12/29 10:55:52;;;;;;;8.30;1.23;;;14.50;99.90;;;;;;5053771;28;20219;-57
2021/12/29 10:58:22;;;;;;;7.28;0.90;;;14.40;99.90;;;;;;5053468;28;20702;-57
2021/12/29 11:01:09;;;;;;;10.37;2.30;;;14.40;99.90;;;;;;5053187;28;20172;-56
2021/12/29 11:04:00;;;;;;;8.10;1.08;;;14.40;99.90;;;;;;5053484;28;20260;-56
2021/12/29 11:06:26;;;;;;;10.83;1.73;;;14.40;99.90;;;;;;5053386;28;20201;-62
2021/12/29 11:08:55;;;;;;;9.63;1.63;;;14.40;99.90;;;;;;5053507;28;20177;-61
2021/12/29 11:11:37;;;;;;;12.70;1.90;;;14.40;99.90;;;;;;5053432;28;20248;-61
2021/12/29 11:14:31;;;;;;;10.55;2.17;;;14.40;99.90;;;;;;5053441;28;20213;-61
2021/12/29 11:17:07;;;;;;;16.38;2.30;;;14.40;99.90;;;;;;5053034;28;20173;-62
2021/12/29 11:19:34;;;;;;;11.33;2.03;;;14.40;99.90;;;;;;5053205;28;20298;-61
2021/12/29 11:22:15;;;;;;;10.63;1.70;;;14.40;99.90;;;;;;5052328;28;20193;-61
2021/12/29 11:24:42;;;;;;;17.70;2.90;;;14.40;99.90;;;;;;5052282;28;20181;-61
2021/12/29 11:27:11;;;;;;;15.23;2.20;;;14.40;99.90;;;;;;5052512;28;20186;-60
2021/12/29 11:29:58;;;;;;;17.87;2.87;;;14.40;99.90;;;;;;5052725;28;20240;-61
2021/12/29 11:32:28;;;;;;;18.30;3.00;;;14.40;99.90;;;;;;5053010;28;20177;-61
2021/12/29 11:35:08;;;;;;;25.97;3.13;;;14.50;99.90;;;;;;5052945;28;20209;-61
2021/12/29 11:37:38;;;;;;;20.77;3.77;;;14.50;99.90;;;;;;5052005;28;20200;-62
2021/12/29 11:40:07;;;;;;;24.17;3.57;;;14.40;99.90;;;;;;5050802;28;20177;-61
2021/12/29 11:42:33;;;;;;;32.00;4.87;;;14.30;99.90;;;;;;5049707;28;20177;-61
2021/12/29 11:44:59;;;;;;;28.57;4.37;;;14.30;99.90;;;;;;5050860;28;20165;-60
2021/12/29 11:47:25;;;;;;;23.23;4.10;;;14.30;99.90;;;;;;5051436;28;20185;-61
2021/12/29 11:49:51;;;;;;;28.30;5.37;;;14.30;99.90;;;;;;5051252;28;20588;-61
2021/12/29 11:52:17;;;;;;;39.45;5.60;;;14.30;99.90;;;;;;5051333;28;20195;-61
2021/12/29 11:55:11;;;;;;;38.40;5.87;;;14.30;99.90;;;;;;5052420;28;20304;-61
2021/12/29 11:57:37;;;;;;;36.37;5.70;;;14.30;99.90;;;;;;5052213;28;20165;-61
2021/12/29 12:00:13;;;;;;;47.37;5.90;;;14.30;99.90;;;;;;5052496;28;20303;-61
2021/12/29 12:02:40;;;;;;;39.53;6.05;;;14.30;99.90;;;;;;5051819;28;20177;-61
2021/12/29 12:05:12;;;;;;;43.90;6.70;;;14.30;99.90;;;;;;5052340;28;20185;-61
2021/12/29 12:07:39;;;;;;;48.55;6.70;;;14.40;99.90;;;;;;5052352;28;20188;-61
2021/12/29 12:10:11;;;;;;;37.55;6.63;;;14.40;99.90;;;;;;5052260;28;20180;-61
2021/12/29 12:12:44;;;;;;;43.35;7.30;;;14.40;99.90;;;;;;5051032;28;20640;-61
2021/12/29 12:15:12;;;;;;;53.63;6.87;;;14.40;99.90;;;;;;5052230;28;20236;-61
2021/12/29 12:17:39;;;;;;;43.90;6.32;;;14.40;99.90;;;;;;5052088;28;20273;-61
2021/12/29 12:20:14;;;;;;;34.72;6.43;;;14.30;99.90;;;;;;5051826;28;20177;-61
2021/12/29 12:22:46;;;;;;;52.53;7.63;;;14.30;99.90;;;;;;5051996;28;20169;-62
2021/12/29 12:25:17;;;;;;;47.30;5.93;;;14.50;99.90;;;;;;5051908;28;20177;-60
2021/12/29 12:27:45;;;;;;;53.27;8.03;;;14.40;99.90;;;;;;5051872;28;20652;-61
2021/12/29 12:30:24;;;;;;;58.60;8.67;;;14.40;99.90;;;;;;5051652;28;20316;-61
2021/12/29 12:32:58;;;;;;;62.65;7.85;;;14.30;99.90;;;;;;5050244;28;20184;-61
2021/12/29 12:35:36;;;;;;;47.78;7.53;;;14.30;99.90;;;;;;5049130;28;20219;-61
2021/12/29 12:38:24;;;;;;;53.90;9.20;;;14.20;99.90;;;;;;5049958;28;20173;-61
2021/12/29 12:41:10;;;;;;;57.38;8.00;;;14.20;99.90;;;;;;5051504;28;20655;-61
2021/12/29 12:43:55;;;;;;;56.20;9.10;;;14.10;99.90;;;;;;5051485;28;20230;-61
2021/12/29 12:46:37;;;;;;;57.07;9.93;;;14.10;99.90;;;;;;5051451;28;20260;-61
2021/12/29 12:49:15;;;;;;;55.40;9.13;;;14.00;99.90;;;;;;5051438;28;20169;-61
2021/12/29 12:51:41;;;;;;;54.23;7.73;;;14.00;99.90;;;;;;5051436;28;20176;-60
2021/12/29 12:54:19;;;;;;;67.53;9.53;;;14.00;99.90;;;;;;5050947;28;20208;-61
2021/12/29 12:56:47;;;;;;;61.63;8.97;;;14.00;99.90;;;;;;5051219;28;20272;-61